Troy, Wisconsin
Current Conditions -  °F | °C
As of 9:31 PM on Sunday 21 Dec 2014 (Local Time) from K21D Reporting Station
Moderate Rain Moderate Rain  
Wind Chill: 28°   Ceiling: 800
Heat Index: 36°   Visibility: 5mi
Dew Point: 36°   Wind: 10mph
Humidity: 100%   Direction: 160°SSE
Pressure: 29.74"   Gusts: NA
Location:  44.8561°N, 92.6272°W
Report Text: K21D 220331Z AUTO 16009KT 5SM RA BKN008 OVC011 02/02 A2974 RMK AO2 P0001
Loading
Personal Weather Stations






























Interactive Weather Map New forecast layout! Learn more

10-Day Weather Forecast

Advertisements
Track Severe Weather on mobile